WEATHER DATA

TODAY
Time Temp. Dewp. Hum. Bar. 1h Prec. 24h Prec.
00:09 0.2 -3 77 1018 0.0000 0.0000
00:19 0.1 -3 77 1018 0.0000 0.0000
00:39 0 -3 78 1017.5 0.0000 0.0000
01:00 0 -3.1 77 1017.4 0.0000 0.0000
01:10 0 -3.1 77 1017.3 0.0000 0.0000
01:19 -0.1 -3.2 77 1017.4 0.0000 0.0000
01:30 -0.2 -3.3 77 1017.2 0.0000 0.0000
01:40 -0.3 -3.4 77 1017.2 0.0000 0.0000
01:50 -0.4 -3.5 77 1017.1 0.0000 0.0000
02:00 -0.5 -3.8 76 1017 0.0000 0.0000
02:10 -0.7 -3.8 77 1016.9 0.0000 0.0000
02:20 -0.8 -4.1 76 1016.8 0.0000 0.0000
02:30 -0.9 -4.2 76 1016.8 0.0000 0.0000
02:41 -0.9 -4.2 76 1016.8 0.0000 0.0000
03:01 -0.9 -4.5 74 1016.7 0.0000 0.0000
03:10 -0.9 -4.6 73 1016.5 0.0000 0.0000
03:21 -0.8 -4.7 72 1016.5 0.0000 0.0000
03:31 -0.8 -4.7 72 1016.3 0.0000 0.0000
03:41 -0.9 -5 71 1016.2 0.0000 0.0000
03:51 -0.9 -5 71 1016.2 0.0000 0.0000
04:01 -0.9 -5 71 1016 0.0000 0.0000
04:11 -1 -5.1 71 1016 0.0000 0.0000
04:21 -1.1 -5.2 71 1015.8 0.0000 0.0000
04:32 -1.2 -5.1 72 1015.6 0.0000 0.0000
04:42 -1.2 -5.3 71 1015.7 0.0000 0.0000
04:52 -1.3 -5.4 71 1015.6 0.0000 0.0000
05:02 -1.4 -5.5 71 1015.5 0.0000 0.0000
05:12 -1.5 -5.6 71 1015.5 0.0000 0.0000
05:22 -1.5 -5.6 71 1015.5 0.0000 0.0000
05:32 -1.6 -5.6 71 1015.5 0.0000 0.0000
05:43 -1.7 -5.7 71 1015.6 0.0000 0.0000
05:53 -1.7 -5.7 71 1015.4 0.0000 0.0000
06:02 -1.8 -5.8 71 1015.3 0.0000 0.0000
06:12 -1.9 -5.8 72 1015.2 0.0000 0.0000
06:23 -1.9 -5.8 72 1015.1 0.0000 0.0000
06:33 -2 -5.9 72 1015.1 0.1010 0.1000
06:43 -2 -5.9 72 1014.9 0.1010 0.1000
06:53 -2.1 -6 72 1014.9 0.1010 0.1000
07:03 -2.1 -6 72 1014.7 0.1010 0.1000
07:13 -2.1 -5.8 73 1014.8 0.1010 0.1000
07:23 -2.1 -5.8 73 1014.7 0.1010 0.1000
07:34 -2 -5.6 74 1014.8 0.0000 0.1000
07:44 -2 -5.6 74 1014.7 0.0000 0.1000
07:54 -2 -5.4 75 1014.7 0.0000 0.1000
08:04 -1.9 -5.3 75 1014.6 0.0000 0.1000
08:14 -1.9 -5.3 75 1014.5 0.0000 0.1000
08:24 -1.9 -5.1 76 1014.6 0.0000 0.1000
08:34 -1.7 -5 76 1014.5 0.0000 0.1000
08:45 -1.6 -4.7 77 1014.3 0.0000 0.1000
08:54 -1.4 -4.5 77 1014.3 0.0000 0.1000
09:04 -1.3 -4.4 77 1014.1 0.0000 0.1000
09:14 -1.2 -4.2 78 1014.1 0.0000 0.1000
09:25 -1 -4 78 1014 0.0000 0.1000
09:35 -0.7 -3.5 79 1013.8 0.0000 0.1000
09:44 -0.5 -3.2 80 1013.7 0.0000 0.1000
09:55 -0.2 -2.9 80 1013.5 0.0000 0.1000
10:05 0 -2.7 80 1013.4 0.0000 0.1000
10:15 0.2 -2.5 80 1013.2 0.0000 0.1000
10:25 0.5 -2.1 81 1013.1 0.0000 0.1000
10:35 0.7 -1.9 81 1013.1 0.0000 0.1000
10:45 1 -1.7 81 1013.1 0.0000 0.1000
10:55 1.2 -1.5 81 1013.1 0.0000 0.1000
11:05 1.4 -1.2 82 1012.9 0.0000 0.1000
11:16 1.6 -1 82 1012.8 0.0000 0.1000
11:25 1.7 -0.9 82 1012.5 0.0000 0.1000
11:35 1.9 -0.7 82 1012.4 0.0000 0.1000
11:46 2 -0.8 81 1012.2 0.0000 0.1000

DAY STATISTIC

2018-11-19
TEMPERATURE
AVERAGE
-0.8
HIGH
2.0
11:46
LOW
-2.1
06:53
PRESSURE
AVERAGE
1015.2
HIGH
1018.0
00:09
LOW
1012.2
11:46
DEWPOINT
AVERAGE
-4.2
HIGH
-0.7
11:35
LOW
-6.0
06:53
HUMIDITY
AVERAGE
75
HIGH
82
11:05
LOW
71
03:41
PRECIPITATION
RAIN HOUR
0.1
RAIN DAY
0.1
TEMPERATURE (°C)
LOW
-2.1
HIGH
2.0
AVERAGE
-0.8
PRESSURE (hpa)
LOW
1012.2
HIGH
1018.0
AVERAGE
1015.2
DEVICE